Time;durP1;ratioP1;P1;durP2;ratioP2;P2;SDS_P1;SDS_P2;PMS_P1;PMS_P2;Temp;Humidity;BMP_temperature;BMP_pressure;BME280_temperature;BME280_humidity;BME280_pressure;Samples;Min_cycle;Max_cycle;Signal;HPM_P1;HPM_P2
2022/01/17 00:00:10;;;;;;;6.93;1.05;;;9.10;93.60;;;;;;5034960;28;20048;-73
2022/01/17 00:02:36;;;;;;;6.13;1.60;;;9.10;93.70;;;;;;5033932;28;20025;-73
2022/01/17 00:05:03;;;;;;;6.47;1.67;;;9.10;94.00;;;;;;5035022;28;20033;-73
2022/01/17 00:07:30;;;;;;;4.38;1.23;;;9.00;93.60;;;;;;5034513;28;20056;-73
2022/01/17 00:09:57;;;;;;;11.30;2.40;;;9.00;93.70;;;;;;5034162;28;20042;-73
2022/01/17 00:12:23;;;;;;;10.45;1.98;;;9.00;93.80;;;;;;5034541;28;20030;-73
2022/01/17 00:14:49;;;;;;;9.40;2.58;;;9.00;93.80;;;;;;5034456;28;20033;-73
2022/01/17 00:19:44;;;;;;;11.52;2.80;;;8.90;93.80;;;;;;5034292;28;20029;-73
2022/01/17 00:22:11;;;;;;;12.73;2.55;;;8.80;93.80;;;;;;5034063;28;20124;-73
2022/01/17 00:24:37;;;;;;;16.30;2.08;;;8.80;93.90;;;;;;5034333;28;20436;-74
2022/01/17 00:27:03;;;;;;;4.47;1.90;;;8.70;94.00;;;;;;5034320;28;20048;-73
2022/01/17 00:29:31;;;;;;;18.42;2.17;;;8.70;94.10;;;;;;5021127;28;20504;-73
2022/01/17 00:31:57;;;;;;;10.82;2.28;;;8.60;94.10;;;;;;5034644;28;20034;-73
2022/01/17 00:34:23;;;;;;;6.10;1.42;;;8.70;94.10;;;;;;5034477;28;20036;-73
2022/01/17 00:36:48;;;;;;;4.93;1.10;;;8.60;94.10;;;;;;5033846;28;20034;-73
2022/01/17 00:39:15;;;;;;;5.38;1.67;;;8.60;94.10;;;;;;5034210;28;20092;-73
2022/01/17 00:41:41;;;;;;;5.57;1.08;;;8.60;94.10;;;;;;5034062;28;20034;-73
2022/01/17 00:44:07;;;;;;;8.50;1.50;;;8.60;94.10;;;;;;5033387;28;20550;-73
2022/01/17 00:46:33;;;;;;;9.88;1.52;;;8.60;94.20;;;;;;5034082;28;20057;-73
2022/01/17 00:48:58;;;;;;;15.05;1.38;;;8.60;94.10;;;;;;5034027;28;20033;-73
2022/01/17 00:51:24;;;;;;;4.55;1.58;;;8.60;94.10;;;;;;5033071;28;20428;-73
2022/01/17 00:53:50;;;;;;;48.25;1.77;;;8.60;94.10;;;;;;5033920;28;20080;-73
2022/01/17 00:56:19;;;;;;;8.10;1.38;;;8.60;94.10;;;;;;5033762;28;20411;-73
2022/01/17 00:58:45;;;;;;;7.10;2.10;;;8.60;94.10;;;;;;5033405;28;20030;-73
2022/01/17 01:01:11;;;;;;;12.65;1.95;;;8.60;94.10;;;;;;5032673;28;20033;-73
2022/01/17 01:03:36;;;;;;;12.55;1.33;;;8.60;94.10;;;;;;5033530;28;20044;-73
2022/01/17 01:06:02;;;;;;;7.28;1.83;;;8.60;94.10;;;;;;5033195;28;20494;-73
2022/01/17 01:08:28;;;;;;;12.50;1.90;;;8.60;94.10;;;;;;5033329;28;20033;-73
2022/01/17 01:10:53;;;;;;;15.68;2.35;;;8.60;94.00;;;;;;5033495;28;20043;-73
2022/01/17 01:13:22;;;;;;;10.63;2.17;;;8.50;94.00;;;;;;5032843;28;20040;-73
2022/01/17 01:16:10;;;;;;;13.15;2.30;;;8.50;94.10;;;;;;5033814;28;20038;-73
2022/01/17 01:18:49;;;;;;;12.60;2.70;;;8.50;94.10;;;;;;5032520;28;20026;-73
2022/01/17 01:29:28;;;;;;;8.07;2.28;;;8.30;94.30;;;;;;5030654;28;20111;-73
2022/01/17 01:32:00;;;;;;;12.65;2.40;;;8.30;94.40;;;;;;5025633;28;20037;-75
2022/01/17 01:34:35;;;;;;;11.05;2.25;;;8.20;94.50;;;;;;5032763;28;20037;-74
2022/01/17 01:37:03;;;;;;;11.00;2.40;;;8.20;94.50;;;;;;5033276;28;20511;-73
2022/01/17 01:39:28;;;;;;;13.80;2.55;;;8.20;94.50;;;;;;5032228;28;20033;-74
2022/01/17 01:41:54;;;;;;;6.45;1.63;;;8.10;94.60;;;;;;5032858;28;20029;-74
2022/01/17 01:44:23;;;;;;;10.00;2.30;;;8.10;94.60;;;;;;5033124;28;20033;-73
2022/01/17 01:46:51;;;;;;;8.45;2.03;;;8.10;94.70;;;;;;5032113;28;20546;-73
2022/01/17 01:49:18;;;;;;;13.88;2.75;;;8.10;94.70;;;;;;5032590;28;20065;-73
2022/01/17 01:51:48;;;;;;;10.50;2.33;;;8.10;94.80;;;;;;5033185;28;20037;-73
2022/01/17 01:54:14;;;;;;;9.48;2.20;;;8.10;94.80;;;;;;5031892;28;20400;-74
2022/01/17 01:56:46;;;;;;;16.60;2.53;;;8.00;94.80;;;;;;5032784;28;20091;-73
2022/01/17 01:59:12;;;;;;;12.98;2.03;;;8.00;94.80;;;;;;5032444;28;20033;-73
2022/01/17 02:01:38;;;;;;;11.90;1.48;;;8.00;94.90;;;;;;5032034;28;20072;-74
2022/01/17 02:04:05;;;;;;;5.43;1.60;;;8.00;94.80;;;;;;5032436;28;20362;-73
2022/01/17 02:06:35;;;;;;;9.77;2.15;;;8.00;94.80;;;;;;5032620;28;20033;-73
2022/01/17 02:09:07;;;;;;;8.93;1.65;;;7.90;94.90;;;;;;5031806;28;20072;-73
2022/01/17 02:11:36;;;;;;;10.93;2.80;;;8.00;94.90;;;;;;5032248;28;20041;-73
2022/01/17 02:14:03;;;;;;;7.57;1.65;;;8.00;94.90;;;;;;5032263;28;20026;-73
2022/01/17 02:16:29;;;;;;;17.27;2.65;;;8.00;94.90;;;;;;5031515;28;20069;-73
2022/01/17 02:18:55;;;;;;;13.43;1.55;;;7.90;94.90;;;;;;5032651;28;20029;-73
2022/01/17 02:21:45;;;;;;;11.98;2.50;;;8.00;94.90;;;;;;5032190;28;20033;-73
2022/01/17 02:24:11;;;;;;;10.20;2.90;;;8.00;94.80;;;;;;5032559;28;20400;-73
2022/01/17 02:26:37;;;;;;;14.52;2.75;;;7.90;94.80;;;;;;5032035;28;20389;-73
2022/01/17 02:29:02;;;;;;;3.67;0.80;;;8.00;94.80;;;;;;5031960;28;20092;-73
2022/01/17 02:31:28;;;;;;;15.60;2.05;;;8.00;94.80;;;;;;5031980;28;20037;-73
2022/01/17 02:33:54;;;;;;;6.18;1.63;;;8.00;94.80;;;;;;5032531;28;20026;-73
2022/01/17 02:36:21;;;;;;;15.40;2.13;;;8.00;94.80;;;;;;5031444;28;20424;-73
2022/01/17 02:38:47;;;;;;;11.43;1.67;;;7.90;94.70;;;;;;5032383;28;20037;-73
2022/01/17 02:41:12;;;;;;;9.32;2.10;;;7.90;94.70;;;;;;5032121;28;20025;-73
2022/01/17 02:43:39;;;;;;;12.68;2.22;;;7.90;94.70;;;;;;5031389;28;20028;-74
2022/01/17 02:48:39;;;;;;;12.45;2.55;;;7.80;94.90;;;;;;5019676;28;20025;-73
2022/01/17 02:51:05;;;;;;;21.08;3.33;;;7.80;94.90;;;;;;5031196;28;20080;-73
2022/01/17 02:53:32;;;;;;;11.05;2.88;;;7.80;94.90;;;;;;5032120;28;20114;-73
2022/01/17 02:56:01;;;;;;;9.13;2.40;;;7.80;94.90;;;;;;5031894;28;20117;-73
2022/01/17 02:58:28;;;;;;;10.55;2.20;;;7.70;94.90;;;;;;5031876;28;20163;-73
2022/01/17 03:00:57;;;;;;;13.25;2.33;;;7.70;95.00;;;;;;5031931;28;20389;-73
2022/01/17 03:03:25;;;;;;;15.48;2.72;;;7.70;95.00;;;;;;5032112;28;20029;-73
2022/01/17 03:05:52;;;;;;;16.20;2.30;;;7.70;95.10;;;;;;5031037;28;20045;-73
2022/01/17 03:08:22;;;;;;;18.70;2.95;;;7.60;95.20;;;;;;5025588;28;20096;-73
2022/01/17 03:10:48;;;;;;;6.25;1.48;;;7.60;95.20;;;;;;5025889;28;20508;-73
2022/01/17 03:13:19;;;;;;;9.40;2.42;;;7.60;95.30;;;;;;5031862;28;20039;-73
2022/01/17 03:15:47;;;;;;;16.83;2.28;;;7.60;95.30;;;;;;5031772;28;20031;-73
2022/01/17 03:18:13;;;;;;;10.77;3.40;;;7.70;95.30;;;;;;5031393;28;20022;-73
2022/01/17 03:20:39;;;;;;;11.20;2.30;;;7.60;95.30;;;;;;5031848;28;20404;-73
2022/01/17 03:23:07;;;;;;;10.88;1.73;;;7.70;95.30;;;;;;5032484;28;20030;-73
2022/01/17 03:25:33;;;;;;;7.32;2.05;;;7.70;95.30;;;;;;5034842;28;20046;-73
2022/01/17 03:27:59;;;;;;;6.45;2.08;;;7.70;95.20;;;;;;5035421;28;20044;-73
2022/01/17 03:30:27;;;;;;;9.85;2.33;;;7.70;95.20;;;;;;5035486;28;20112;-73
2022/01/17 03:32:52;;;;;;;15.70;2.25;;;7.80;95.20;;;;;;5034518;28;20025;-73
2022/01/17 03:35:19;;;;;;;5.93;2.10;;;7.80;95.20;;;;;;5034379;28;20029;-74
2022/01/17 03:37:44;;;;;;;14.13;2.13;;;7.80;95.20;;;;;;5034050;28;20393;-73
2022/01/17 03:40:15;;;;;;;9.25;2.28;;;7.80;95.20;;;;;;5034594;28;20026;-73
2022/01/17 03:42:41;;;;;;;6.07;1.77;;;7.80;95.20;;;;;;5034885;28;20036;-73
2022/01/17 03:45:08;;;;;;;13.98;2.72;;;7.80;95.20;;;;;;5034302;28;20025;-73
2022/01/17 03:47:35;;;;;;;16.02;2.35;;;7.80;95.20;;;;;;5032894;28;20397;-73
2022/01/17 03:50:03;;;;;;;7.07;2.40;;;7.80;95.20;;;;;;5035010;28;20036;-72
2022/01/17 03:52:28;;;;;;;9.73;2.05;;;7.80;95.30;;;;;;5034613;28;20059;-73
2022/01/17 03:54:54;;;;;;;11.52;1.77;;;7.80;95.30;;;;;;5034360;28;20530;-73
2022/01/17 03:57:20;;;;;;;7.63;2.30;;;7.80;95.40;;;;;;5034841;28;20061;-72
2022/01/17 03:59:45;;;;;;;13.60;2.55;;;7.80;95.40;;;;;;5034841;28;20063;-72
2022/01/17 04:02:11;;;;;;;9.27;1.42;;;7.80;95.40;;;;;;5034418;28;20052;-73
2022/01/17 04:04:36;;;;;;;7.57;1.95;;;7.80;95.40;;;;;;5034811;28;20374;-73
2022/01/17 04:07:02;;;;;;;10.52;1.85;;;7.80;95.40;;;;;;5034455;28;20029;-73
2022/01/17 04:09:28;;;;;;;5.18;1.83;;;7.80;95.50;;;;;;5034257;28;20059;-72
2022/01/17 04:11:53;;;;;;;10.25;2.35;;;7.80;95.50;;;;;;5034563;28;20048;-73
2022/01/17 04:14:19;;;;;;;12.85;2.38;;;7.70;95.50;;;;;;5034063;28;20056;-73
2022/01/17 04:16:45;;;;;;;15.43;2.92;;;7.80;95.60;;;;;;5034345;28;20129;-73
2022/01/17 04:19:11;;;;;;;11.40;2.30;;;7.70;95.60;;;;;;5034746;28;20485;-72
2022/01/17 04:21:37;;;;;;;9.57;2.28;;;7.70;95.70;;;;;;5033467;28;20473;-73
2022/01/17 04:24:06;;;;;;;12.65;2.35;;;7.70;95.70;;;;;;5034876;28;20038;-72
2022/01/17 04:26:32;;;;;;;12.32;2.45;;;7.80;95.70;;;;;;5034616;28;20083;-73
2022/01/17 04:28:57;;;;;;;13.38;2.00;;;7.70;95.70;;;;;;5034395;28;20068;-73
2022/01/17 04:31:23;;;;;;;8.98;1.83;;;7.80;95.80;;;;;;5034741;28;20083;-73
2022/01/17 04:33:48;;;;;;;4.97;1.33;;;7.80;95.80;;;;;;5034427;28;20430;-73
2022/01/17 04:36:14;;;;;;;8.50;2.15;;;7.80;95.80;;;;;;5033672;28;20537;-73
2022/01/17 04:38:40;;;;;;;13.95;2.55;;;7.80;95.80;;;;;;5034083;28;20472;-73
2022/01/17 04:41:13;;;;;;;7.18;2.47;;;7.90;95.80;;;;;;5034381;28;20017;-73
2022/01/17 04:46:06;;;;;;;9.23;1.85;;;7.80;95.80;;;;;;5034259;28;20090;-73
2022/01/17 04:48:36;;;;;;;10.48;2.85;;;7.80;95.90;;;;;;5021456;28;20374;-73
2022/01/17 04:51:03;;;;;;;12.93;2.53;;;7.80;95.90;;;;;;5033607;28;20171;-73
2022/01/17 04:53:30;;;;;;;9.75;2.15;;;7.80;96.00;;;;;;5033780;28;20224;-72
2022/01/17 04:55:57;;;;;;;12.60;2.05;;;7.80;96.00;;;;;;5033345;28;20065;-72
2022/01/17 04:58:22;;;;;;;16.65;2.97;;;7.90;96.00;;;;;;5033815;28;20373;-73
2022/01/17 05:00:48;;;;;;;20.25;3.28;;;7.80;96.00;;;;;;5033748;28;20043;-72
2022/01/17 05:03:15;;;;;;;11.82;2.30;;;7.80;96.10;;;;;;5033669;28;20029;-73
2022/01/17 05:05:44;;;;;;;12.45;2.05;;;7.80;96.10;;;;;;5028157;28;20025;-73
2022/01/17 05:08:09;;;;;;;19.95;2.90;;;7.80;96.20;;;;;;5026785;28;20538;-73
2022/01/17 05:10:35;;;;;;;8.85;2.47;;;7.80;96.20;;;;;;5031866;28;20037;-72
2022/01/17 05:13:02;;;;;;;19.05;3.65;;;7.90;96.20;;;;;;5033121;28;20025;-73
2022/01/17 05:15:32;;;;;;;10.02;2.38;;;7.90;96.20;;;;;;5032959;28;20029;-73
2022/01/17 05:18:12;;;;;;;12.07;3.17;;;7.90;96.20;;;;;;5032093;28;20041;-72
2022/01/17 05:20:41;;;;;;;22.60;2.92;;;7.90;96.20;;;;;;5032771;28;20030;-73
2022/01/17 05:23:08;;;;;;;25.30;3.13;;;7.90;96.20;;;;;;5032663;28;20029;-71
2022/01/17 05:25:34;;;;;;;16.23;3.75;;;7.90;96.20;;;;;;5031757;28;20045;-80
2022/01/17 05:28:00;;;;;;;15.23;2.90;;;7.90;96.30;;;;;;5032984;28;20056;-73
2022/01/17 05:30:25;;;;;;;7.05;2.17;;;7.90;96.30;;;;;;5032740;28;20536;-72
2022/01/17 05:32:53;;;;;;;17.00;3.38;;;7.90;96.60;;;;;;5032743;28;20156;-73
2022/01/17 05:35:19;;;;;;;15.52;3.30;;;7.90;96.30;;;;;;5033121;28;20067;-73
2022/01/17 05:37:46;;;;;;;19.75;3.45;;;8.00;96.40;;;;;;5032597;28;20139;-74
2022/01/17 05:40:14;;;;;;;8.80;2.42;;;8.00;96.40;;;;;;5032759;28;20029;-72
2022/01/17 05:42:40;;;;;;;14.32;2.47;;;8.00;96.40;;;;;;5032841;28;20045;-74
2022/01/17 05:45:08;;;;;;;16.17;3.53;;;8.00;96.40;;;;;;5032961;28;20026;-72
2022/01/17 05:47:34;;;;;;;17.38;3.03;;;8.00;96.40;;;;;;5031908;28;20083;-72
2022/01/17 05:50:03;;;;;;;16.25;2.92;;;8.10;96.40;;;;;;5032711;28;20057;-72
2022/01/17 05:52:36;;;;;;;17.00;3.47;;;8.10;96.30;;;;;;5032421;28;20033;-72
2022/01/17 05:55:03;;;;;;;15.88;1.88;;;8.10;96.30;;;;;;5032349;28;20490;-71
2022/01/17 05:57:28;;;;;;;16.58;3.47;;;8.20;96.40;;;;;;5032347;28;20033;-73
2022/01/17 05:59:58;;;;;;;14.90;2.58;;;8.10;96.40;;;;;;5032320;28;20040;-72
2022/01/17 06:02:24;;;;;;;15.40;2.58;;;8.10;96.40;;;;;;5031087;28;20063;-71
2022/01/17 06:04:50;;;;;;;24.50;4.13;;;8.20;96.50;;;;;;5032876;28;20033;-71
2022/01/17 06:07:16;;;;;;;22.58;2.97;;;8.10;96.40;;;;;;5031900;28;20073;-73
2022/01/17 06:09:42;;;;;;;14.02;2.80;;;8.20;96.40;;;;;;5032601;28;20064;-71
2022/01/17 06:12:08;;;;;;;11.68;3.22;;;8.20;96.50;;;;;;5031343;28;20076;-74
2022/01/17 06:14:34;;;;;;;14.75;2.88;;;8.20;96.40;;;;;;5031531;28;20029;-74
2022/01/17 06:16:59;;;;;;;12.90;2.33;;;8.20;96.40;;;;;;5031820;28;20029;-72
2022/01/17 06:19:25;;;;;;;13.95;2.90;;;8.20;96.50;;;;;;5031618;28;20488;-73
2022/01/17 06:21:51;;;;;;;13.75;2.45;;;8.30;96.50;;;;;;5030696;28;20022;-72
2022/01/17 06:24:17;;;;;;;9.10;2.15;;;8.30;96.50;;;;;;5030532;28;20047;-72
2022/01/17 06:26:43;;;;;;;22.55;3.30;;;8.30;96.50;;;;;;5030281;28;20045;-72
2022/01/17 06:29:11;;;;;;;14.18;3.28;;;8.20;96.50;;;;;;5030306;28;20044;-73
2022/01/17 06:31:39;;;;;;;12.98;2.25;;;8.30;96.50;;;;;;5030393;28;20037;-72
2022/01/17 06:34:05;;;;;;;9.15;2.88;;;8.30;96.60;;;;;;5030877;28;20397;-72
2022/01/17 06:36:31;;;;;;;15.15;3.55;;;8.30;96.60;;;;;;5030696;28;20025;-72
2022/01/17 06:38:57;;;;;;;13.70;2.38;;;8.30;96.60;;;;;;5031628;28;20032;-72
2022/01/17 06:41:23;;;;;;;13.85;2.88;;;8.30;96.60;;;;;;5032005;28;20029;-72
2022/01/17 06:43:48;;;;;;;26.27;3.97;;;8.40;96.70;;;;;;5031901;28;20039;-72
2022/01/17 06:46:14;;;;;;;11.55;3.05;;;8.30;96.70;;;;;;5031500;28;20488;-76
2022/01/17 06:48:41;;;;;;;9.57;3.05;;;8.30;96.70;;;;;;5031115;28;20049;-73
2022/01/17 06:51:07;;;;;;;18.60;3.80;;;8.40;96.70;;;;;;5031241;28;20042;-72
2022/01/17 06:53:33;;;;;;;10.80;2.20;;;8.40;96.70;;;;;;5031636;28;20491;-72
2022/01/17 06:55:59;;;;;;;39.63;4.90;;;8.40;96.70;;;;;;5029569;28;20056;-72
2022/01/17 06:58:26;;;;;;;16.23;3.03;;;8.50;96.70;;;;;;5031646;28;20041;-73
2022/01/17 07:00:51;;;;;;;17.25;3.13;;;8.40;96.70;;;;;;5034923;28;20116;-73
2022/01/17 07:03:17;;;;;;;26.60;3.72;;;8.50;96.70;;;;;;5033986;28;20739;-73
2022/01/17 07:05:43;;;;;;;13.10;3.08;;;8.50;96.90;;;;;;5035029;28;20033;-74
2022/01/17 07:08:09;;;;;;;12.00;2.47;;;8.50;96.70;;;;;;5035417;28;20030;-74
2022/01/17 07:10:34;;;;;;;35.03;6.60;;;8.50;96.70;;;;;;5033324;28;20042;-72
2022/01/17 07:13:00;;;;;;;28.35;4.07;;;8.50;96.70;;;;;;5034126;28;20056;-72
2022/01/17 07:15:26;;;;;;;37.63;4.60;;;8.60;96.70;;;;;;5034098;28;20396;-72
2022/01/17 07:17:51;;;;;;;17.83;3.13;;;8.60;96.70;;;;;;5032604;28;20051;-74
2022/01/17 07:20:17;;;;;;;18.67;3.05;;;8.60;96.70;;;;;;5034036;28;20080;-71
2022/01/17 07:22:43;;;;;;;27.55;3.55;;;8.60;96.70;;;;;;5034023;28;20400;-72
2022/01/17 07:25:09;;;;;;;37.05;4.80;;;8.60;96.70;;;;;;5031575;28;20080;-71
2022/01/17 07:27:35;;;;;;;19.60;2.83;;;8.60;96.70;;;;;;5033761;28;20068;-72
2022/01/17 07:30:05;;;;;;;23.02;3.42;;;8.60;96.80;;;;;;5033498;28;20025;-71
2022/01/17 07:32:31;;;;;;;20.40;4.13;;;8.60;96.80;;;;;;5032079;28;20412;-72
2022/01/17 07:35:00;;;;;;;24.13;3.88;;;8.70;96.80;;;;;;5032656;28;20017;-71
2022/01/17 07:37:26;;;;;;;22.83;3.47;;;8.70;96.80;;;;;;5032370;28;20136;-72
2022/01/17 07:39:51;;;;;;;21.60;3.72;;;8.70;96.80;;;;;;5033002;28;20116;-71
2022/01/17 07:42:17;;;;;;;16.63;3.38;;;8.70;96.80;;;;;;5033327;28;20033;-75
2022/01/17 07:44:52;;;;;;;38.78;6.00;;;8.80;96.80;;;;;;5018735;28;20074;-71
2022/01/17 07:47:24;;;;;;;32.85;5.40;;;8.80;96.80;;;;;;5031980;28;20480;-72
2022/01/17 07:49:50;;;;;;;28.50;4.80;;;8.80;96.80;;;;;;5030779;28;20450;-71
2022/01/17 07:52:19;;;;;;;21.52;3.42;;;8.80;97.00;;;;;;5031601;28;20061;-72
2022/01/17 07:54:47;;;;;;;12.40;3.60;;;8.80;96.70;;;;;;5031980;28;20788;-73
2022/01/17 07:57:13;;;;;;;21.42;2.92;;;8.90;96.70;;;;;;5033906;28;20044;-72
2022/01/17 07:59:39;;;;;;;13.32;2.55;;;8.90;96.60;;;;;;5033736;28;20037;-72
2022/01/17 08:02:05;;;;;;;34.08;5.22;;;8.90;96.70;;;;;;5022543;28;20378;-72
2022/01/17 08:04:31;;;;;;;31.02;5.40;;;8.90;96.70;;;;;;5035058;28;20041;-72
2022/01/17 08:06:57;;;;;;;21.40;3.13;;;9.00;96.70;;;;;;5034314;28;20056;-71
2022/01/17 08:09:26;;;;;;;24.42;4.57;;;8.90;96.60;;;;;;5034631;28;20041;-72
2022/01/17 08:11:52;;;;;;;19.40;4.25;;;9.00;96.60;;;;;;5034142;28;20479;-72
2022/01/17 08:14:18;;;;;;;11.52;3.28;;;9.00;96.60;;;;;;5025826;28;20038;-72
2022/01/17 08:16:44;;;;;;;17.60;3.88;;;9.00;96.60;;;;;;5030514;28;20037;-72
2022/01/17 08:19:09;;;;;;;17.92;3.10;;;9.00;96.70;;;;;;5032719;28;20061;-72
2022/01/17 08:21:35;;;;;;;13.25;3.80;;;9.00;96.60;;;;;;5031757;28;20037;-71
2022/01/17 08:24:01;;;;;;;12.93;2.63;;;9.00;96.60;;;;;;5033478;28;20026;-71
2022/01/17 08:26:27;;;;;;;26.00;4.13;;;9.10;96.60;;;;;;5033336;28;20128;-72
2022/01/17 08:28:54;;;;;;;33.80;4.88;;;9.10;96.60;;;;;;5034059;28;20055;-72
2022/01/17 08:31:20;;;;;;;27.77;3.75;;;9.10;96.60;;;;;;5034290;28;20088;-71
2022/01/17 08:33:46;;;;;;;35.15;5.68;;;9.20;96.60;;;;;;5023710;28;20033;-72
2022/01/17 08:36:11;;;;;;;36.17;5.07;;;9.20;96.60;;;;;;5032488;28;20033;-71
2022/01/17 08:38:40;;;;;;;28.33;4.22;;;9.20;96.50;;;;;;5034600;28;20451;-71
2022/01/17 08:41:06;;;;;;;39.92;4.63;;;9.20;96.50;;;;;;5033890;28;20041;-72
2022/01/17 08:43:32;;;;;;;41.65;6.00;;;9.30;96.50;;;;;;5033776;28;20481;-72
2022/01/17 08:46:03;;;;;;;37.45;5.35;;;9.30;96.50;;;;;;5033839;28;20116;-71
2022/01/17 08:48:29;;;;;;;25.85;4.03;;;9.30;96.40;;;;;;5033441;28;20037;-72
2022/01/17 08:50:54;;;;;;;29.90;3.63;;;9.30;96.40;;;;;;5034028;28;20041;-71
2022/01/17 08:53:20;;;;;;;35.22;5.53;;;9.40;96.40;;;;;;5033770;28;20026;-71
2022/01/17 08:55:46;;;;;;;40.38;5.95;;;9.40;96.30;;;;;;5032828;28;20079;-71
2022/01/17 08:58:13;;;;;;;48.95;10.38;;;9.40;96.40;;;;;;5034167;28;20030;-71
2022/01/17 09:00:39;;;;;;;18.85;3.08;;;9.40;96.30;;;;;;5033750;28;20076;-72
2022/01/17 09:03:05;;;;;;;26.05;4.10;;;9.40;96.30;;;;;;5033378;28;20025;-72
2022/01/17 09:05:33;;;;;;;33.65;5.18;;;9.50;96.40;;;;;;5033316;28;20060;-71
2022/01/17 09:08:08;;;;;;;26.08;4.40;;;9.50;96.40;;;;;;5033568;28;20560;-72
2022/01/17 09:10:35;;;;;;;42.55;4.40;;;9.50;96.40;;;;;;5032705;28;20496;-71
2022/01/17 09:13:01;;;;;;;26.70;4.05;;;9.50;96.40;;;;;;5033626;28;20030;-72
2022/01/17 09:15:27;;;;;;;26.13;4.53;;;9.60;96.40;;;;;;5033485;28;20380;-71
2022/01/17 09:17:52;;;;;;;11.60;2.85;;;9.60;96.40;;;;;;5032957;28;20063;-71
2022/01/17 09:20:18;;;;;;;38.13;6.35;;;9.60;96.40;;;;;;5033225;28;20037;-71
2022/01/17 09:22:44;;;;;;;30.98;5.47;;;9.60;96.40;;;;;;5032432;28;20045;-72
2022/01/17 09:25:11;;;;;;;31.63;5.88;;;9.60;96.40;;;;;;5033018;28;20041;-71
2022/01/17 09:27:37;;;;;;;23.77;3.70;;;9.60;96.40;;;;;;5033286;28;20033;-72
2022/01/17 09:30:09;;;;;;;40.50;4.93;;;9.70;96.40;;;;;;5033289;28;20033;-72
2022/01/17 09:32:37;;;;;;;32.75;6.35;;;9.70;96.40;;;;;;5032485;28;20063;-72
2022/01/17 09:35:05;;;;;;;49.83;8.32;;;9.70;96.40;;;;;;5033313;28;20033;-72
2022/01/17 09:37:31;;;;;;;21.73;4.47;;;9.70;96.40;;;;;;5032683;28;20033;-71
2022/01/17 09:39:56;;;;;;;35.38;5.03;;;9.70;96.40;;;;;;5032612;28;20037;-72
2022/01/17 09:42:22;;;;;;;29.52;4.38;;;9.70;96.40;;;;;;5032989;28;20100;-72
2022/01/17 09:44:48;;;;;;;37.33;5.25;;;9.80;96.40;;;;;;5022117;28;20116;-72
2022/01/17 09:47:14;;;;;;;17.10;3.55;;;9.80;96.40;;;;;;5030888;28;20507;-72
2022/01/17 09:49:47;;;;;;;22.60;3.50;;;9.80;96.40;;;;;;5032839;28;20041;-73
2022/01/17 09:54:43;;;;;;;30.05;4.82;;;9.80;96.40;;;;;;5031921;28;20547;-72
2022/01/17 09:57:10;;;;;;;34.72;5.93;;;9.90;96.50;;;;;;5031477;28;20037;-71
2022/01/17 09:59:38;;;;;;;44.72;6.28;;;9.80;96.40;;;;;;5018721;28;20083;-73
2022/01/17 10:02:05;;;;;;;31.55;6.00;;;9.90;96.50;;;;;;5017422;28;20033;-72
2022/01/17 10:04:31;;;;;;;50.00;7.80;;;9.90;96.50;;;;;;5031322;28;20384;-72
2022/01/17 10:06:59;;;;;;;41.47;6.93;;;9.90;96.50;;;;;;5031449;28;20401;-73
2022/01/17 10:09:26;;;;;;;56.17;6.72;;;10.00;96.50;;;;;;5031062;28;20087;-72
2022/01/17 10:12:07;;;;;;;40.78;6.97;;;10.00;96.50;;;;;;5032280;28;20033;-73
2022/01/17 10:14:42;;;;;;;43.38;5.70;;;10.00;96.40;;;;;;5030792;28;20029;-77
2022/01/17 10:17:16;;;;;;;47.40;7.20;;;10.10;96.50;;;;;;5032279;28;20029;-73
2022/01/17 10:19:43;;;;;;;46.30;6.70;;;10.10;96.50;;;;;;5032199;28;20037;-73
2022/01/17 10:22:18;;;;;;;31.63;4.82;;;10.10;96.50;;;;;;5031788;28;20041;-79
2022/01/17 10:25:02;;;;;;;40.28;5.57;;;10.10;96.50;;;;;;5031920;28;20029;-70
2022/01/17 10:35:22;;;;;;;39.17;6.00;;;10.20;96.60;;;;;;5038596;28;20060;-74
2022/01/17 10:38:11;;;;;;;56.67;7.88;;;10.30;96.60;;;;;;5038971;28;20373;-72
2022/01/17 10:40:42;;;;;;;33.55;6.22;;;10.20;96.70;;;;;;5038939;28;20072;-73
2022/01/17 10:43:34;;;;;;;61.42;9.50;;;10.30;96.70;;;;;;5038452;28;20033;-72
2022/01/17 10:46:03;;;;;;;41.10;6.55;;;10.30;96.70;;;;;;5038115;28;20025;-72
2022/01/17 10:48:34;;;;;;;32.35;5.45;;;10.30;96.80;;;;;;5037652;28;20029;-72
2022/01/17 10:51:05;;;;;;;55.10;7.47;;;10.30;96.80;;;;;;5038404;28;20091;-72
2022/01/17 10:53:30;;;;;;;58.45;7.97;;;10.40;96.80;;;;;;5037715;28;20075;-72
2022/01/17 10:55:57;;;;;;;25.98;5.15;;;10.40;96.70;;;;;;5037420;28;20480;-71
2022/01/17 10:58:29;;;;;;;55.35;7.75;;;10.40;96.60;;;;;;5038667;28;20025;-72
2022/01/17 11:00:57;;;;;;;57.45;5.57;;;10.40;96.60;;;;;;5038188;28;20061;-72
2022/01/17 11:03:27;;;;;;;41.75;6.03;;;10.50;96.60;;;;;;5037864;28;20032;-72
2022/01/17 11:05:55;;;;;;;33.65;5.70;;;10.50;96.60;;;;;;5038116;28;20392;-72
2022/01/17 11:08:23;;;;;;;36.15;5.10;;;10.50;96.50;;;;;;5037903;28;20029;-72
2022/01/17 11:10:53;;;;;;;78.22;9.10;;;10.50;96.50;;;;;;5037398;28;20041;-72
2022/01/17 11:13:24;;;;;;;39.60;6.35;;;10.50;96.40;;;;;;5037814;28;20052;-72
2022/01/17 11:15:59;;;;;;;60.40;9.32;;;10.60;96.40;;;;;;5038051;28;20091;-72
2022/01/17 11:18:28;;;;;;;33.30;5.20;;;10.60;96.20;;;;;;5037993;28;20175;-73
2022/01/17 11:21:01;;;;;;;40.60;7.40;;;10.60;96.20;;;;;;5038619;28;20045;-72
2022/01/17 11:23:27;;;;;;;63.60;8.43;;;10.60;96.30;;;;;;5037758;28;20030;-72
2022/01/17 11:25:55;;;;;;;56.53;7.95;;;10.60;96.20;;;;;;5038052;28;20053;-72
2022/01/17 11:28:24;;;;;;;43.08;6.38;;;10.70;96.20;;;;;;5038228;28;20033;-72
2022/01/17 11:30:55;;;;;;;56.65;8.43;;;10.70;96.20;;;;;;5038047;28;20045;-72
2022/01/17 11:33:24;;;;;;;54.97;8.43;;;10.60;96.10;;;;;;5038443;28;20026;-72
2022/01/17 11:35:54;;;;;;;40.25;5.78;;;10.70;96.10;;;;;;5038398;28;20034;-74
2022/01/17 11:38:43;;;;;;;43.53;5.93;;;10.70;96.20;;;;;;5037646;28;20021;-72
2022/01/17 11:41:31;;;;;;;41.55;6.22;;;10.70;96.20;;;;;;5038349;28;20401;-72
2022/01/17 11:44:03;;;;;;;50.50;8.88;;;10.70;96.10;;;;;;5035927;28;20044;-73
2022/01/17 11:46:31;;;;;;;41.75;8.40;;;10.80;96.10;;;;;;5034684;28;20029;-72
2022/01/17 11:49:07;;;;;;;51.20;7.15;;;10.70;95.90;;;;;;5035587;28;20029;-72
2022/01/17 11:51:44;;;;;;;58.70;8.43;;;10.80;96.10;;;;;;5034241;28;20469;-73
2022/01/17 11:54:18;;;;;;;67.32;9.68;;;10.80;96.10;;;;;;5034614;28;20291;-72
2022/01/17 11:56:46;;;;;;;66.32;10.25;;;10.80;96.10;;;;;;5029490;28;20388;-72
2022/01/17 11:59:43;;;;;;;63.28;10.00;;;10.80;96.10;;;;;;5030113;28;20068;-72
2022/01/17 12:02:20;;;;;;;46.28;7.35;;;10.80;96.10;;;;;;5021465;28;20065;-72
2022/01/17 12:05:06;;;;;;;62.22;9.18;;;10.80;96.10;;;;;;5027977;28;20120;-72
2022/01/17 12:07:41;;;;;;;52.88;8.05;;;10.80;96.10;;;;;;5024601;28;20036;-72
2022/01/17 12:10:14;;;;;;;60.50;8.80;;;10.80;96.30;;;;;;5024481;28;20044;-72
2022/01/17 12:12:40;;;;;;;48.75;9.70;;;10.80;96.00;;;;;;5030258;28;20071;-72
2022/01/17 12:15:13;;;;;;;46.70;7.35;;;10.90;96.10;;;;;;5028491;28;20485;-72
2022/01/17 12:17:39;;;;;;;;;;;10.90;96.20;;;;;;5034702;28;20041;-72
2022/01/17 12:20:05;;;;;;;43.60;7.28;;;11.00;96.20;;;;;;5033751;28;19909;-72
2022/01/17 12:22:32;;;;;;;52.05;7.93;;;11.00;96.20;;;;;;5034528;28;20045;-72
2022/01/17 12:25:00;;;;;;;38.47;5.72;;;10.90;96.20;;;;;;5033942;28;20087;-72
2022/01/17 12:27:28;;;;;;;35.20;7.25;;;10.90;96.30;;;;;;5034001;28;20029;-72
2022/01/17 12:30:09;;;;;;;47.00;7.28;;;11.00;96.30;;;;;;5034047;28;20034;-72
2022/01/17 12:32:36;;;;;;;63.72;9.00;;;11.00;96.30;;;;;;5033657;28;20029;-72
2022/01/17 12:35:05;;;;;;;42.30;6.43;;;11.00;96.30;;;;;;5034138;28;20080;-72
2022/01/17 12:37:46;;;;;;;25.23;3.63;;;11.10;96.60;;;;;;5033520;28;20425;-75
2022/01/17 12:40:24;;;;;;;34.95;5.90;;;11.10;96.30;;;;;;5033310;28;20061;-71
2022/01/17 12:42:53;;;;;;;20.27;4.68;;;11.10;96.30;;;;;;5033008;28;20484;-72
2022/01/17 12:45:43;;;;;;;28.02;3.60;;;11.20;96.60;;;;;;5033154;28;20039;-71
2022/01/17 12:48:20;;;;;;;31.42;4.30;;;11.20;96.60;;;;;;5033090;28;20509;-72
2022/01/17 12:50:48;;;;;;;30.25;5.55;;;11.20;96.10;;;;;;5033233;28;20041;-71
2022/01/17 12:53:17;;;;;;;37.00;5.63;;;11.30;96.10;;;;;;5033006;28;20056;-75
2022/01/17 12:55:45;;;;;;;34.13;5.03;;;11.30;95.90;;;;;;5031433;28;20109;-76
2022/01/17 12:58:16;;;;;;;44.83;6.07;;;11.30;95.90;;;;;;5033331;28;20040;-75
2022/01/17 13:00:44;;;;;;;31.50;5.85;;;11.30;96.00;;;;;;5033368;28;20039;-71
2022/01/17 13:03:13;;;;;;;23.30;3.08;;;11.30;96.00;;;;;;5033121;28;20021;-72
2022/01/17 13:05:39;;;;;;;27.42;3.63;;;11.30;96.10;;;;;;5032831;28;20554;-72
2022/01/17 13:08:06;;;;;;;25.40;4.95;;;11.40;96.50;;;;;;5033206;28;20037;-71
2022/01/17 13:10:32;;;;;;;51.35;7.93;;;11.40;96.30;;;;;;5032997;28;20110;-70
2022/01/17 13:12:59;;;;;;;29.90;4.32;;;11.40;96.00;;;;;;5033099;28;20026;-71
2022/01/17 13:15:25;;;;;;;31.08;4.80;;;11.40;96.30;;;;;;5033611;28;20068;-71